createdAt,value
2022-12-05T00:00:08.365Z,26.73
2022-12-05T00:05:12.112Z,28.70
2022-12-05T00:10:13.961Z,29.15
2022-12-05T00:15:15.803Z,27.85
2022-12-05T00:20:17.829Z,27.92
2022-12-05T00:25:19.584Z,26.48
2022-12-05T00:30:22.157Z,27.05
2022-12-05T00:35:24.516Z,27.45
2022-12-05T00:40:26.385Z,27.20
2022-12-05T00:45:28.265Z,26.00
2022-12-05T00:50:30.066Z,25.42
2022-12-05T00:55:33.771Z,26.40
2022-12-05T01:00:35.522Z,26.92
2022-12-05T01:05:37.760Z,26.13
2022-12-05T01:10:39.568Z,25.67
2022-12-05T01:15:41.283Z,27.73
2022-12-05T01:20:43.901Z,26.50
2022-12-05T01:25:49.126Z,26.67
2022-12-05T01:30:51.021Z,28.33
2022-12-05T01:35:52.883Z,26.98
2022-12-05T01:41:05.034Z,28.08
2022-12-05T01:46:06.935Z,26.83
2022-12-05T01:51:09.101Z,27.48
2022-12-05T01:56:11.734Z,29.08
2022-12-05T02:01:15.307Z,27.27
2022-12-05T02:06:17.505Z,26.90
2022-12-05T02:11:19.919Z,27.73
2022-12-05T02:16:52.574Z,29.65
2022-12-05T02:22:25.275Z,28.67
2022-12-05T02:27:47.284Z,26.63
2022-12-05T02:33:01.667Z,27.58
2022-12-05T02:38:35.881Z,29.88
2022-12-05T02:43:54.930Z,28.73
2022-12-05T02:49:01.558Z,28.30
2022-12-05T02:54:07.823Z,30.35
2022-12-05T02:59:09.664Z,29.67
2022-12-05T03:04:13.687Z,27.52
2022-12-05T03:09:23.816Z,28.48
2022-12-05T03:14:47.315Z,17.98
2022-12-05T03:20:10.380Z,28.23
2022-12-05T03:25:13.913Z,26.40
2022-12-05T03:30:18.991Z,27.65
2022-12-05T03:35:50.257Z,26.10
2022-12-05T03:41:03.967Z,26.98
2022-12-05T03:46:12.637Z,26.85
2022-12-05T03:51:16.706Z,26.08
2022-12-05T03:56:40.526Z,27.30
2022-12-05T04:01:43.658Z,26.85
2022-12-05T04:06:48.592Z,25.20
2022-12-05T04:11:57.163Z,26.60
2022-12-05T04:17:04.606Z,26.33
2022-12-05T04:22:06.920Z,25.60
2022-12-05T04:27:33.243Z,27.00
2022-12-05T04:32:54.722Z,26.42
2022-12-05T04:38:06.834Z,27.25
2022-12-05T04:43:10.821Z,30.02
2022-12-05T04:48:16.165Z,29.08
2022-12-05T04:53:19.487Z,27.65
2022-12-05T04:58:23.634Z,27.33
2022-12-05T05:03:28.011Z,30.65
2022-12-05T05:08:30.281Z,30.05
2022-12-05T05:13:32.032Z,29.83
2022-12-05T05:18:34.253Z,29.00
2022-12-05T05:23:36.002Z,28.50
2022-12-05T05:28:37.723Z,30.10
2022-12-05T05:33:39.513Z,29.50
2022-12-05T05:38:45.631Z,28.77
2022-12-05T05:43:48.748Z,29.48
2022-12-05T05:48:51.519Z,29.67
2022-12-05T05:53:53.439Z,29.10
2022-12-05T05:58:57.562Z,29.77
2022-12-05T06:03:59.533Z,28.65
2022-12-05T06:09:01.408Z,28.13
2022-12-05T06:14:03.177Z,29.60
2022-12-05T06:19:04.938Z,29.58
2022-12-05T06:24:07.158Z,28.40
2022-12-05T06:29:09.010Z,29.15
2022-12-05T06:34:10.765Z,27.38
2022-12-05T06:39:12.593Z,27.73
2022-12-05T06:44:14.381Z,29.08
2022-12-05T06:49:16.510Z,26.30
2022-12-05T06:54:18.248Z,26.85
2022-12-05T06:59:20.067Z,25.83
2022-12-05T07:04:26.187Z,26.52
2022-12-05T07:10:01.355Z,28.60
2022-12-05T07:15:03.578Z,25.85
2022-12-05T07:20:07.276Z,24.95
2022-12-05T07:25:09.317Z,25.13
2022-12-05T07:30:11.387Z,24.65
2022-12-05T07:35:13.167Z,24.30
2022-12-05T07:40:15.178Z,26.83
2022-12-05T07:45:17.227Z,25.92
2022-12-05T07:50:19.034Z,24.40
2022-12-05T07:55:20.782Z,22.88
2022-12-05T08:00:22.901Z,24.65
2022-12-05T08:05:24.649Z,24.10
2022-12-05T08:10:26.605Z,22.98
2022-12-05T08:15:28.429Z,24.13
2022-12-05T08:20:30.668Z,25.38
2022-12-05T08:25:33.884Z,24.80
2022-12-05T08:30:35.800Z,25.23
2022-12-05T08:35:38.101Z,23.83
2022-12-05T08:40:39.961Z,24.23
2022-12-05T08:45:41.786Z,24.35
2022-12-05T08:50:43.717Z,23.27
2022-12-05T08:55:48.435Z,24.98
2022-12-05T09:00:50.244Z,25.27
2022-12-05T09:05:54.823Z,25.20
2022-12-05T09:10:56.768Z,24.33
2022-12-05T09:15:58.682Z,21.95
2022-12-05T09:21:06.768Z,21.67
2022-12-05T09:26:12.119Z,23.58
2022-12-05T09:31:16.913Z,22.38
2022-12-05T09:36:28.265Z,23.08
2022-12-05T09:42:10.892Z,22.55
2022-12-05T09:47:20.672Z,23.15
2022-12-05T09:52:38.466Z,23.47
2022-12-05T09:57:47.243Z,24.48
2022-12-05T10:03:10.099Z,25.77
2022-12-05T10:08:36.644Z,23.00
2022-12-05T10:13:41.783Z,25.33
2022-12-05T10:18:48.830Z,29.40
2022-12-05T10:23:58.307Z,27.13
2022-12-05T10:29:19.461Z,18.20
2022-12-05T10:39:32.692Z,22.55
2022-12-05T10:44:34.868Z,24.48
2022-12-05T10:49:38.373Z,23.10
2022-12-05T10:55:04.092Z,18.98
2022-12-05T11:00:15.349Z,19.38
2022-12-05T11:05:28.220Z,18.05
2022-12-05T11:10:34.508Z,17.23
2022-12-05T11:15:48.424Z,16.60
2022-12-05T11:20:52.749Z,15.52
2022-12-05T11:25:58.727Z,16.05
2022-12-05T11:31:12.695Z,14.63
2022-12-05T11:36:23.623Z,14.65
2022-12-05T11:42:07.493Z,12.90
2022-12-05T11:47:21.878Z,13.98
2022-12-05T11:52:36.079Z,14.48
2022-12-05T11:58:08.393Z,14.43
2022-12-05T12:03:34.458Z,12.50
2022-12-05T12:09:34.712Z,14.20
2022-12-05T12:15:00.436Z,13.10
2022-12-05T12:20:16.779Z,13.15
2022-12-05T12:25:39.544Z,13.73
2022-12-05T12:30:56.223Z,13.43
2022-12-05T12:36:26.237Z,13.52
2022-12-05T12:41:54.826Z,14.47
2022-12-05T12:47:01.007Z,14.02
2022-12-05T12:52:11.557Z,14.60
2022-12-05T12:57:28.395Z,10.88
2022-12-05T13:02:45.417Z,13.32
2022-12-05T13:08:10.288Z,12.40
2022-12-05T13:13:22.391Z,12.38
2022-12-05T13:18:26.006Z,14.20
2022-12-05T13:23:31.587Z,14.43
2022-12-05T13:28:44.828Z,14.00
2022-12-05T13:33:51.139Z,15.70
2022-12-05T13:39:21.248Z,13.82
2022-12-05T13:44:57.247Z,13.45
2022-12-05T13:50:16.484Z,14.43
2022-12-05T13:55:39.106Z,14.68
2022-12-05T14:00:40.932Z,14.57
2022-12-05T14:05:50.611Z,13.50
2022-12-05T14:10:52.310Z,10.98
2022-12-05T14:16:10.673Z,13.77
2022-12-05T14:21:22.210Z,13.70
2022-12-05T14:26:39.834Z,14.02
2022-12-05T14:31:44.856Z,14.55
2022-12-05T14:37:00.141Z,15.70
2022-12-05T14:42:05.517Z,14.15
2022-12-05T14:47:07.399Z,15.23
2022-12-05T14:52:12.228Z,14.65
2022-12-05T14:57:16.423Z,16.38
2022-12-05T15:02:33.523Z,13.65
2022-12-05T15:07:38.875Z,17.10
2022-12-05T15:12:56.625Z,14.70
2022-12-05T15:18:08.734Z,15.25
2022-12-05T15:23:41.644Z,16.25
2022-12-05T15:29:08.300Z,16.30
2022-12-05T15:34:19.088Z,16.55
2022-12-05T15:39:25.730Z,17.58
2022-12-05T15:44:34.227Z,18.10
2022-12-05T15:49:39.195Z,16.20
2022-12-05T15:54:42.571Z,16.92
2022-12-05T16:00:02.076Z,17.58
2022-12-05T16:05:04.272Z,18.58
2022-12-05T16:10:06.952Z,17.10
2022-12-05T16:15:23.303Z,16.60
2022-12-05T16:20:37.085Z,16.35
2022-12-05T16:25:39.054Z,16.90
2022-12-05T16:30:41.131Z,18.48
2022-12-05T16:35:47.382Z,17.15
2022-12-05T16:40:49.110Z,15.23
2022-12-05T16:45:53.181Z,17.40
2022-12-05T16:51:13.396Z,18.95
2022-12-05T16:56:31.430Z,14.30
2022-12-05T17:01:38.695Z,18.13
2022-12-05T17:06:41.058Z,19.65
2022-12-05T17:11:46.007Z,20.90
2022-12-05T17:16:47.939Z,18.17
2022-12-05T17:21:49.823Z,20.75
2022-12-05T17:26:51.740Z,20.27
2022-12-05T17:31:53.639Z,20.23
2022-12-05T17:36:55.660Z,23.33
2022-12-05T17:41:57.496Z,19.92
2022-12-05T17:47:07.487Z,18.20
2022-12-05T17:52:27.151Z,19.92
2022-12-05T17:57:29.151Z,19.98
2022-12-05T18:02:31.116Z,18.17
2022-12-05T18:07:33.103Z,19.65
2022-12-05T18:12:36.024Z,20.90
2022-12-05T18:17:38.248Z,19.92
2022-12-05T18:22:40.055Z,21.02
2022-12-05T18:27:42.927Z,20.17
2022-12-05T18:32:45.078Z,20.02
2022-12-05T18:37:46.927Z,20.45
2022-12-05T18:42:52.300Z,19.55
2022-12-05T18:48:00.591Z,22.15
2022-12-05T18:53:11.897Z,22.45
2022-12-05T18:58:13.684Z,22.02
2022-12-05T19:03:15.443Z,23.00
2022-12-05T19:08:17.423Z,20.75
2022-12-05T19:13:20.864Z,23.52
2022-12-05T19:18:23.888Z,21.80
2022-12-05T19:23:26.197Z,24.02
2022-12-05T19:28:29.340Z,21.17
2022-12-05T19:33:33.771Z,22.58
2022-12-05T19:38:36.017Z,22.58
2022-12-05T19:43:38.889Z,22.10
2022-12-05T19:48:40.721Z,23.27
2022-12-05T19:53:44.182Z,22.45
2022-12-05T19:58:47.334Z,22.77
2022-12-05T20:03:52.209Z,21.70
2022-12-05T20:08:54.493Z,24.50
2022-12-05T20:13:57.916Z,22.48
2022-12-05T20:19:00.116Z,23.73
2022-12-05T20:24:03.364Z,24.48
2022-12-05T20:29:06.228Z,25.13
2022-12-05T20:34:10.765Z,23.60
2022-12-05T20:39:18.080Z,25.95
2022-12-05T20:44:20.040Z,26.63
2022-12-05T20:49:21.886Z,24.88
2022-12-05T20:54:23.857Z,23.90
2022-12-05T20:59:25.775Z,25.13
2022-12-05T21:04:27.527Z,25.02
2022-12-05T21:09:31.735Z,24.58
2022-12-05T21:14:34.424Z,25.73
2022-12-05T21:19:36.343Z,25.77
2022-12-05T21:24:38.276Z,24.67
2022-12-05T21:29:40.065Z,25.52
2022-12-05T21:34:41.907Z,25.17
2022-12-05T21:39:43.633Z,24.17
2022-12-05T21:44:45.798Z,25.25
2022-12-05T21:49:47.684Z,25.83
2022-12-05T21:54:49.569Z,24.33
2022-12-05T21:59:51.325Z,25.08
2022-12-05T22:04:53.064Z,23.77
2022-12-05T22:09:54.841Z,24.00
2022-12-05T22:14:56.674Z,22.83
2022-12-05T22:19:58.748Z,22.95
2022-12-05T22:25:01.024Z,22.00
2022-12-05T22:30:03.081Z,21.42
2022-12-05T22:35:05.018Z,21.92
2022-12-05T22:40:07.469Z,22.60
2022-12-05T22:45:09.909Z,23.02
2022-12-05T22:50:12.145Z,23.85
2022-12-05T22:55:13.933Z,21.70
2022-12-05T23:00:15.984Z,21.10
2022-12-05T23:05:17.879Z,22.92
2022-12-05T23:10:19.846Z,18.65
2022-12-05T23:15:21.735Z,18.25
2022-12-05T23:20:23.674Z,17.58
2022-12-05T23:25:26.352Z,18.27
2022-12-05T23:30:28.333Z,15.90
2022-12-05T23:35:30.187Z,16.45
2022-12-05T23:40:32.023Z,16.15
2022-12-05T23:45:34.196Z,15.75
2022-12-05T23:50:36.455Z,15.00
2022-12-05T23:55:38.328Z,15.25
